sensor_id;sensor_type;location;lat;lon;timestamp;P1;durP1;ratioP1;P2;durP2;ratioP2
11048;SDS011;5577;42.706;23.160;2023-03-17T00:02:35;7.20;;;5.77;;
11048;SDS011;5577;42.706;23.160;2023-03-17T00:05:22;7.40;;;6.27;;
11048;SDS011;5577;42.706;23.160;2023-03-17T00:08:41;8.30;;;6.63;;
11048;SDS011;5577;42.706;23.160;2023-03-17T00:11:18;6.63;;;5.93;;
11048;SDS011;5577;42.706;23.160;2023-03-17T00:14:03;7.87;;;6.40;;
11048;SDS011;5577;42.706;23.160;2023-03-17T00:16:48;7.30;;;6.47;;
11048;SDS011;5577;42.706;23.160;2023-03-17T00:19:33;7.57;;;6.27;;
11048;SDS011;5577;42.706;23.160;2023-03-17T00:22:18;7.93;;;6.50;;
11048;SDS011;5577;42.706;23.160;2023-03-17T00:25:10;9.40;;;6.07;;
11048;SDS011;5577;42.706;23.160;2023-03-17T00:28:01;7.27;;;6.30;;
11048;SDS011;5577;42.706;23.160;2023-03-17T00:30:55;9.50;;;6.73;;
11048;SDS011;5577;42.706;23.160;2023-03-17T00:33:44;8.10;;;6.63;;
11048;SDS011;5577;42.706;23.160;2023-03-17T00:36:29;8.60;;;6.53;;
11048;SDS011;5577;42.706;23.160;2023-03-17T00:39:15;7.70;;;6.47;;
11048;SDS011;5577;42.706;23.160;2023-03-17T00:41:59;9.07;;;7.60;;
11048;SDS011;5577;42.706;23.160;2023-03-17T00:44:44;8.73;;;7.03;;
11048;SDS011;5577;42.706;23.160;2023-03-17T00:47:28;9.50;;;7.03;;
11048;SDS011;5577;42.706;23.160;2023-03-17T00:50:17;9.10;;;7.23;;
11048;SDS011;5577;42.706;23.160;2023-03-17T00:53:11;9.17;;;7.10;;
11048;SDS011;5577;42.706;23.160;2023-03-17T00:55:56;10.00;;;7.30;;
11048;SDS011;5577;42.706;23.160;2023-03-17T00:58:41;10.13;;;7.63;;
11048;SDS011;5577;42.706;23.160;2023-03-17T01:01:26;9.70;;;7.00;;
11048;SDS011;5577;42.706;23.160;2023-03-17T01:04:10;10.40;;;7.03;;
11048;SDS011;5577;42.706;23.160;2023-03-17T01:06:53;9.77;;;7.10;;
11048;SDS011;5577;42.706;23.160;2023-03-17T01:09:37;8.20;;;7.20;;
11048;SDS011;5577;42.706;23.160;2023-03-17T01:12:23;8.20;;;6.87;;
11048;SDS011;5577;42.706;23.160;2023-03-17T01:15:08;8.83;;;6.73;;
11048;SDS011;5577;42.706;23.160;2023-03-17T01:17:53;9.43;;;6.87;;
11048;SDS011;5577;42.706;23.160;2023-03-17T01:20:38;8.63;;;6.40;;
11048;SDS011;5577;42.706;23.160;2023-03-17T01:23:23;8.67;;;6.80;;
11048;SDS011;5577;42.706;23.160;2023-03-17T01:26:07;8.33;;;6.53;;
11048;SDS011;5577;42.706;23.160;2023-03-17T01:28:52;7.47;;;6.37;;
11048;SDS011;5577;42.706;23.160;2023-03-17T01:31:36;7.33;;;6.20;;
11048;SDS011;5577;42.706;23.160;2023-03-17T01:34:20;8.00;;;6.70;;
11048;SDS011;5577;42.706;23.160;2023-03-17T01:37:04;7.67;;;6.73;;
11048;SDS011;5577;42.706;23.160;2023-03-17T01:39:49;7.77;;;6.30;;
11048;SDS011;5577;42.706;23.160;2023-03-17T01:42:34;8.13;;;6.27;;
11048;SDS011;5577;42.706;23.160;2023-03-17T01:48:46;6.40;;;5.67;;
11048;SDS011;5577;42.706;23.160;2023-03-17T01:52:01;6.93;;;5.93;;
11048;SDS011;5577;42.706;23.160;2023-03-17T01:54:52;8.40;;;5.77;;
11048;SDS011;5577;42.706;23.160;2023-03-17T01:57:46;6.57;;;5.87;;
11048;SDS011;5577;42.706;23.160;2023-03-17T02:00:35;8.30;;;6.40;;
11048;SDS011;5577;42.706;23.160;2023-03-17T02:03:21;7.43;;;6.03;;
11048;SDS011;5577;42.706;23.160;2023-03-17T02:06:05;7.10;;;5.67;;
11048;SDS011;5577;42.706;23.160;2023-03-17T02:08:50;7.80;;;6.10;;
11048;SDS011;5577;42.706;23.160;2023-03-17T02:11:35;6.77;;;5.67;;
11048;SDS011;5577;42.706;23.160;2023-03-17T02:14:20;7.10;;;5.73;;
11048;SDS011;5577;42.706;23.160;2023-03-17T02:17:05;7.37;;;5.50;;
11048;SDS011;5577;42.706;23.160;2023-03-17T02:19:49;7.47;;;5.67;;
11048;SDS011;5577;42.706;23.160;2023-03-17T02:22:34;7.43;;;5.77;;
11048;SDS011;5577;42.706;23.160;2023-03-17T02:25:18;6.40;;;5.40;;
11048;SDS011;5577;42.706;23.160;2023-03-17T02:28:06;7.40;;;5.60;;
11048;SDS011;5577;42.706;23.160;2023-03-17T02:30:54;7.87;;;5.60;;
11048;SDS011;5577;42.706;23.160;2023-03-17T02:33:38;8.30;;;5.60;;
11048;SDS011;5577;42.706;23.160;2023-03-17T02:36:22;6.37;;;5.30;;
11048;SDS011;5577;42.706;23.160;2023-03-17T02:39:06;6.07;;;5.40;;
11048;SDS011;5577;42.706;23.160;2023-03-17T02:41:51;6.70;;;5.40;;
11048;SDS011;5577;42.706;23.160;2023-03-17T02:44:35;7.23;;;5.13;;
11048;SDS011;5577;42.706;23.160;2023-03-17T02:47:19;6.30;;;5.53;;
11048;SDS011;5577;42.706;23.160;2023-03-17T02:50:05;6.97;;;4.90;;
11048;SDS011;5577;42.706;23.160;2023-03-17T02:52:51;5.90;;;5.30;;
11048;SDS011;5577;42.706;23.160;2023-03-17T02:55:35;5.87;;;5.27;;
11048;SDS011;5577;42.706;23.160;2023-03-17T02:58:18;5.70;;;4.97;;
11048;SDS011;5577;42.706;23.160;2023-03-17T03:01:02;7.73;;;5.43;;
11048;SDS011;5577;42.706;23.160;2023-03-17T03:03:46;7.60;;;4.97;;
11048;SDS011;5577;42.706;23.160;2023-03-17T03:06:30;5.87;;;5.27;;
11048;SDS011;5577;42.706;23.160;2023-03-17T03:09:15;5.70;;;4.70;;
11048;SDS011;5577;42.706;23.160;2023-03-17T03:12:00;7.23;;;5.13;;
11048;SDS011;5577;42.706;23.160;2023-03-17T03:14:44;5.60;;;4.97;;
11048;SDS011;5577;42.706;23.160;2023-03-17T03:17:28;6.00;;;4.70;;
11048;SDS011;5577;42.706;23.160;2023-03-17T03:20:12;5.53;;;4.87;;
11048;SDS011;5577;42.706;23.160;2023-03-17T03:22:57;5.53;;;4.93;;
11048;SDS011;5577;42.706;23.160;2023-03-17T03:25:41;7.20;;;5.00;;
11048;SDS011;5577;42.706;23.160;2023-03-17T03:28:25;5.67;;;5.00;;
11048;SDS011;5577;42.706;23.160;2023-03-17T03:31:09;6.93;;;5.20;;
11048;SDS011;5577;42.706;23.160;2023-03-17T03:33:53;5.30;;;4.33;;
11048;SDS011;5577;42.706;23.160;2023-03-17T03:36:38;6.10;;;5.07;;
11048;SDS011;5577;42.706;23.160;2023-03-17T03:39:22;5.20;;;4.70;;
11048;SDS011;5577;42.706;23.160;2023-03-17T03:42:05;5.10;;;4.37;;
11048;SDS011;5577;42.706;23.160;2023-03-17T03:44:49;5.43;;;4.57;;
11048;SDS011;5577;42.706;23.160;2023-03-17T03:47:34;5.27;;;4.77;;
11048;SDS011;5577;42.706;23.160;2023-03-17T03:50:18;5.73;;;5.07;;
11048;SDS011;5577;42.706;23.160;2023-03-17T03:53:02;5.97;;;5.37;;
11048;SDS011;5577;42.706;23.160;2023-03-17T03:55:46;7.07;;;5.40;;
11048;SDS011;5577;42.706;23.160;2023-03-17T03:58:30;6.23;;;5.60;;
11048;SDS011;5577;42.706;23.160;2023-03-17T04:01:14;6.37;;;5.37;;
11048;SDS011;5577;42.706;23.160;2023-03-17T04:03:58;5.93;;;5.33;;
11048;SDS011;5577;42.706;23.160;2023-03-17T04:06:42;6.83;;;5.53;;
11048;SDS011;5577;42.706;23.160;2023-03-17T04:09:26;7.60;;;5.90;;
11048;SDS011;5577;42.706;23.160;2023-03-17T04:12:10;6.53;;;5.40;;
11048;SDS011;5577;42.706;23.160;2023-03-17T04:14:54;7.47;;;6.17;;
11048;SDS011;5577;42.706;23.160;2023-03-17T04:17:39;6.40;;;5.57;;
11048;SDS011;5577;42.706;23.160;2023-03-17T04:20:23;6.43;;;5.47;;
11048;SDS011;5577;42.706;23.160;2023-03-17T04:23:07;6.93;;;6.17;;
11048;SDS011;5577;42.706;23.160;2023-03-17T04:25:51;7.87;;;6.20;;
11048;SDS011;5577;42.706;23.160;2023-03-17T04:28:36;7.80;;;6.40;;
11048;SDS011;5577;42.706;23.160;2023-03-17T04:31:20;7.17;;;6.30;;
11048;SDS011;5577;42.706;23.160;2023-03-17T04:34:04;7.70;;;5.77;;
11048;SDS011;5577;42.706;23.160;2023-03-17T04:36:48;7.00;;;5.53;;
11048;SDS011;5577;42.706;23.160;2023-03-17T04:39:32;6.97;;;6.20;;
11048;SDS011;5577;42.706;23.160;2023-03-17T04:42:16;7.10;;;6.03;;
11048;SDS011;5577;42.706;23.160;2023-03-17T04:45:01;8.57;;;6.33;;
11048;SDS011;5577;42.706;23.160;2023-03-17T04:47:46;8.57;;;6.50;;
11048;SDS011;5577;42.706;23.160;2023-03-17T04:50:30;7.00;;;5.97;;
11048;SDS011;5577;42.706;23.160;2023-03-17T04:53:15;7.67;;;6.20;;
11048;SDS011;5577;42.706;23.160;2023-03-17T04:55:59;8.30;;;6.10;;
11048;SDS011;5577;42.706;23.160;2023-03-17T04:58:43;7.10;;;5.53;;
11048;SDS011;5577;42.706;23.160;2023-03-17T05:01:28;6.47;;;5.50;;
11048;SDS011;5577;42.706;23.160;2023-03-17T05:04:12;8.20;;;7.33;;
11048;SDS011;5577;42.706;23.160;2023-03-17T05:06:55;8.00;;;6.27;;
11048;SDS011;5577;42.706;23.160;2023-03-17T05:09:41;7.33;;;6.63;;
11048;SDS011;5577;42.706;23.160;2023-03-17T05:12:25;7.53;;;6.37;;
11048;SDS011;5577;42.706;23.160;2023-03-17T05:15:09;6.10;;;5.50;;
11048;SDS011;5577;42.706;23.160;2023-03-17T05:17:53;6.43;;;5.70;;
11048;SDS011;5577;42.706;23.160;2023-03-17T05:20:37;6.93;;;5.43;;
11048;SDS011;5577;42.706;23.160;2023-03-17T05:23:21;6.33;;;5.30;;
11048;SDS011;5577;42.706;23.160;2023-03-17T05:26:06;5.80;;;5.20;;
11048;SDS011;5577;42.706;23.160;2023-03-17T05:28:50;6.97;;;5.40;;
11048;SDS011;5577;42.706;23.160;2023-03-17T05:31:34;7.10;;;5.60;;
11048;SDS011;5577;42.706;23.160;2023-03-17T05:34:19;6.77;;;5.53;;
11048;SDS011;5577;42.706;23.160;2023-03-17T05:37:03;5.20;;;4.50;;
11048;SDS011;5577;42.706;23.160;2023-03-17T05:39:46;5.40;;;4.90;;
11048;SDS011;5577;42.706;23.160;2023-03-17T05:42:30;5.40;;;4.90;;
11048;SDS011;5577;42.706;23.160;2023-03-17T05:45:14;7.47;;;6.53;;
11048;SDS011;5577;42.706;23.160;2023-03-17T05:47:59;9.00;;;7.07;;
11048;SDS011;5577;42.706;23.160;2023-03-17T05:50:43;10.00;;;8.77;;
11048;SDS011;5577;42.706;23.160;2023-03-17T05:53:27;5.53;;;5.03;;
11048;SDS011;5577;42.706;23.160;2023-03-17T05:56:12;6.47;;;4.93;;
11048;SDS011;5577;42.706;23.160;2023-03-17T05:58:56;4.20;;;3.80;;
11048;SDS011;5577;42.706;23.160;2023-03-17T06:01:40;3.97;;;3.57;;
11048;SDS011;5577;42.706;23.160;2023-03-17T06:04:23;3.93;;;3.40;;
11048;SDS011;5577;42.706;23.160;2023-03-17T06:07:08;4.20;;;3.73;;
11048;SDS011;5577;42.706;23.160;2023-03-17T06:09:54;5.40;;;4.90;;
11048;SDS011;5577;42.706;23.160;2023-03-17T06:12:38;5.10;;;4.60;;
11048;SDS011;5577;42.706;23.160;2023-03-17T06:15:22;5.87;;;4.23;;
11048;SDS011;5577;42.706;23.160;2023-03-17T06:18:06;4.63;;;4.10;;
11048;SDS011;5577;42.706;23.160;2023-03-17T06:20:50;4.27;;;3.60;;
11048;SDS011;5577;42.706;23.160;2023-03-17T06:23:34;4.57;;;3.93;;
11048;SDS011;5577;42.706;23.160;2023-03-17T06:26:19;5.90;;;3.60;;
11048;SDS011;5577;42.706;23.160;2023-03-17T06:29:03;4.67;;;3.93;;
11048;SDS011;5577;42.706;23.160;2023-03-17T06:31:52;4.07;;;3.67;;
11048;SDS011;5577;42.706;23.160;2023-03-17T06:34:37;4.83;;;3.73;;
11048;SDS011;5577;42.706;23.160;2023-03-17T06:37:21;6.30;;;3.73;;
11048;SDS011;5577;42.706;23.160;2023-03-17T06:40:05;3.53;;;3.20;;
11048;SDS011;5577;42.706;23.160;2023-03-17T06:42:52;4.43;;;3.57;;
11048;SDS011;5577;42.706;23.160;2023-03-17T06:45:36;3.67;;;3.33;;
11048;SDS011;5577;42.706;23.160;2023-03-17T06:48:20;4.77;;;3.70;;
11048;SDS011;5577;42.706;23.160;2023-03-17T06:51:06;4.67;;;3.70;;
11048;SDS011;5577;42.706;23.160;2023-03-17T06:53:51;4.33;;;3.50;;
11048;SDS011;5577;42.706;23.160;2023-03-17T06:56:35;4.23;;;3.63;;
11048;SDS011;5577;42.706;23.160;2023-03-17T06:59:19;3.40;;;3.10;;
11048;SDS011;5577;42.706;23.160;2023-03-17T07:02:05;3.70;;;3.37;;
11048;SDS011;5577;42.706;23.160;2023-03-17T07:04:49;3.40;;;3.00;;
11048;SDS011;5577;42.706;23.160;2023-03-17T07:07:34;2.87;;;2.67;;
11048;SDS011;5577;42.706;23.160;2023-03-17T07:10:19;3.07;;;2.77;;
11048;SDS011;5577;42.706;23.160;2023-03-17T07:13:03;3.03;;;2.80;;
11048;SDS011;5577;42.706;23.160;2023-03-17T07:15:49;3.80;;;3.50;;
11048;SDS011;5577;42.706;23.160;2023-03-17T07:18:33;4.33;;;3.90;;
11048;SDS011;5577;42.706;23.160;2023-03-17T07:21:17;3.23;;;2.90;;
11048;SDS011;5577;42.706;23.160;2023-03-17T07:24:01;3.83;;;3.43;;
11048;SDS011;5577;42.706;23.160;2023-03-17T07:26:45;3.27;;;3.00;;
11048;SDS011;5577;42.706;23.160;2023-03-17T07:29:29;4.10;;;2.80;;
11048;SDS011;5577;42.706;23.160;2023-03-17T07:32:15;4.00;;;3.50;;
11048;SDS011;5577;42.706;23.160;2023-03-17T07:34:59;3.57;;;3.20;;
11048;SDS011;5577;42.706;23.160;2023-03-17T07:37:43;3.10;;;2.80;;
11048;SDS011;5577;42.706;23.160;2023-03-17T07:40:27;3.80;;;3.00;;
11048;SDS011;5577;42.706;23.160;2023-03-17T07:43:12;3.50;;;3.00;;
11048;SDS011;5577;42.706;23.160;2023-03-17T07:45:56;2.93;;;2.63;;
11048;SDS011;5577;42.706;23.160;2023-03-17T07:48:41;3.83;;;3.13;;
11048;SDS011;5577;42.706;23.160;2023-03-17T07:51:26;2.77;;;2.30;;
11048;SDS011;5577;42.706;23.160;2023-03-17T07:54:11;4.23;;;3.13;;
11048;SDS011;5577;42.706;23.160;2023-03-17T07:56:56;4.10;;;2.90;;
11048;SDS011;5577;42.706;23.160;2023-03-17T07:59:40;3.33;;;3.03;;
11048;SDS011;5577;42.706;23.160;2023-03-17T08:02:24;3.20;;;2.70;;
11048;SDS011;5577;42.706;23.160;2023-03-17T08:05:08;5.93;;;4.60;;
11048;SDS011;5577;42.706;23.160;2023-03-17T08:07:53;4.07;;;3.60;;
11048;SDS011;5577;42.706;23.160;2023-03-17T08:10:37;3.53;;;3.20;;
11048;SDS011;5577;42.706;23.160;2023-03-17T08:13:22;3.80;;;3.40;;
11048;SDS011;5577;42.706;23.160;2023-03-17T08:16:07;3.60;;;3.10;;
11048;SDS011;5577;42.706;23.160;2023-03-17T08:18:51;3.30;;;3.00;;
11048;SDS011;5577;42.706;23.160;2023-03-17T08:21:36;3.90;;;3.50;;
11048;SDS011;5577;42.706;23.160;2023-03-17T08:24:19;4.23;;;3.03;;
11048;SDS011;5577;42.706;23.160;2023-03-17T08:27:03;3.80;;;3.37;;
11048;SDS011;5577;42.706;23.160;2023-03-17T08:29:47;4.30;;;3.90;;
11048;SDS011;5577;42.706;23.160;2023-03-17T08:32:34;4.40;;;3.77;;
11048;SDS011;5577;42.706;23.160;2023-03-17T08:35:17;4.17;;;3.77;;
11048;SDS011;5577;42.706;23.160;2023-03-17T08:38:02;4.47;;;3.83;;
11048;SDS011;5577;42.706;23.160;2023-03-17T08:40:46;4.80;;;3.50;;
11048;SDS011;5577;42.706;23.160;2023-03-17T08:43:34;4.57;;;3.23;;
11048;SDS011;5577;42.706;23.160;2023-03-17T08:46:24;4.63;;;3.83;;
11048;SDS011;5577;42.706;23.160;2023-03-17T08:49:12;5.10;;;4.50;;
11048;SDS011;5577;42.706;23.160;2023-03-17T08:51:56;5.57;;;4.53;;
11048;SDS011;5577;42.706;23.160;2023-03-17T08:54:41;4.83;;;4.20;;
11048;SDS011;5577;42.706;23.160;2023-03-17T08:57:26;4.73;;;3.90;;
11048;SDS011;5577;42.706;23.160;2023-03-17T09:00:14;4.93;;;3.90;;
11048;SDS011;5577;42.706;23.160;2023-03-17T09:03:03;6.33;;;4.67;;
11048;SDS011;5577;42.706;23.160;2023-03-17T09:05:48;5.53;;;3.93;;
11048;SDS011;5577;42.706;23.160;2023-03-17T09:08:33;6.50;;;5.30;;
11048;SDS011;5577;42.706;23.160;2023-03-17T09:11:22;7.57;;;4.70;;
11048;SDS011;5577;42.706;23.160;2023-03-17T09:14:09;6.47;;;5.00;;
11048;SDS011;5577;42.706;23.160;2023-03-17T09:16:54;8.17;;;5.00;;
11048;SDS011;5577;42.706;23.160;2023-03-17T09:19:39;7.00;;;4.13;;
11048;SDS011;5577;42.706;23.160;2023-03-17T09:22:24;4.77;;;4.23;;
11048;SDS011;5577;42.706;23.160;2023-03-17T09:25:08;5.40;;;4.00;;
11048;SDS011;5577;42.706;23.160;2023-03-17T09:27:52;4.00;;;3.60;;
11048;SDS011;5577;42.706;23.160;2023-03-17T09:30:36;5.23;;;3.60;;
11048;SDS011;5577;42.706;23.160;2023-03-17T09:33:20;6.57;;;3.40;;
11048;SDS011;5577;42.706;23.160;2023-03-17T09:36:04;3.50;;;3.20;;
11048;SDS011;5577;42.706;23.160;2023-03-17T09:38:49;4.97;;;2.77;;
11048;SDS011;5577;42.706;23.160;2023-03-17T09:51:27;3.13;;;2.83;;
11048;SDS011;5577;42.706;23.160;2023-03-17T09:57:18;3.30;;;2.53;;
11048;SDS011;5577;42.706;23.160;2023-03-17T10:00:11;3.67;;;3.03;;
11048;SDS011;5577;42.706;23.160;2023-03-17T10:02:59;4.87;;;2.57;;
11048;SDS011;5577;42.706;23.160;2023-03-17T10:05:44;3.93;;;3.23;;
11048;SDS011;5577;42.706;23.160;2023-03-17T10:08:30;4.80;;;3.30;;
11048;SDS011;5577;42.706;23.160;2023-03-17T10:14:19;5.57;;;3.10;;
11048;SDS011;5577;42.706;23.160;2023-03-17T10:17:13;3.40;;;2.93;;
11048;SDS011;5577;42.706;23.160;2023-03-17T10:20:05;3.63;;;3.07;;
11048;SDS011;5577;42.706;23.160;2023-03-17T10:22:55;2.83;;;2.50;;
11048;SDS011;5577;42.706;23.160;2023-03-17T10:25:41;3.40;;;2.97;;
11048;SDS011;5577;42.706;23.160;2023-03-17T10:28:29;3.13;;;2.83;;
11048;SDS011;5577;42.706;23.160;2023-03-17T10:31:19;4.97;;;3.23;;
11048;SDS011;5577;42.706;23.160;2023-03-17T10:34:16;3.97;;;2.77;;
11048;SDS011;5577;42.706;23.160;2023-03-17T10:37:05;2.40;;;2.20;;
11048;SDS011;5577;42.706;23.160;2023-03-17T10:39:53;5.13;;;2.93;;
11048;SDS011;5577;42.706;23.160;2023-03-17T10:42:46;2.67;;;2.20;;
11048;SDS011;5577;42.706;23.160;2023-03-17T10:45:35;2.90;;;2.50;;
11048;SDS011;5577;42.706;23.160;2023-03-17T10:48:23;4.33;;;2.90;;
11048;SDS011;5577;42.706;23.160;2023-03-17T10:51:08;2.80;;;2.50;;
11048;SDS011;5577;42.706;23.160;2023-03-17T10:53:53;2.10;;;2.00;;
11048;SDS011;5577;42.706;23.160;2023-03-17T10:56:38;2.93;;;2.50;;
11048;SDS011;5577;42.706;23.160;2023-03-17T10:59:29;2.50;;;2.30;;
11048;SDS011;5577;42.706;23.160;2023-03-17T11:02:28;3.00;;;2.70;;
11048;SDS011;5577;42.706;23.160;2023-03-17T11:05:19;2.93;;;2.67;;
11048;SDS011;5577;42.706;23.160;2023-03-17T11:08:07;3.10;;;2.80;;
11048;SDS011;5577;42.706;23.160;2023-03-17T11:10:54;3.77;;;2.70;;
11048;SDS011;5577;42.706;23.160;2023-03-17T11:13:42;3.23;;;2.83;;
11048;SDS011;5577;42.706;23.160;2023-03-17T11:16:26;3.10;;;2.80;;
11048;SDS011;5577;42.706;23.160;2023-03-17T11:19:11;3.97;;;3.20;;
11048;SDS011;5577;42.706;23.160;2023-03-17T11:25:02;3.97;;;3.00;;
11048;SDS011;5577;42.706;23.160;2023-03-17T11:28:17;3.27;;;2.97;;
11048;SDS011;5577;42.706;23.160;2023-03-17T11:34:03;4.67;;;3.20;;
11048;SDS011;5577;42.706;23.160;2023-03-17T11:46:35;5.00;;;3.40;;
11048;SDS011;5577;42.706;23.160;2023-03-17T11:49:23;3.27;;;2.97;;
11048;SDS011;5577;42.706;23.160;2023-03-17T11:56:01;4.73;;;3.20;;
11048;SDS011;5577;42.706;23.160;2023-03-17T11:58:36;2.80;;;2.53;;
11048;SDS011;5577;42.706;23.160;2023-03-17T12:01:25;4.80;;;3.70;;
11048;SDS011;5577;42.706;23.160;2023-03-17T12:04:21;3.50;;;2.90;;
11048;SDS011;5577;42.706;23.160;2023-03-17T12:07:16;2.87;;;2.50;;
11048;SDS011;5577;42.706;23.160;2023-03-17T12:13:19;2.07;;;1.87;;
11048;SDS011;5577;42.706;23.160;2023-03-17T12:19:00;2.47;;;1.70;;
11048;SDS011;5577;42.706;23.160;2023-03-17T12:31:02;1.93;;;1.60;;
11048;SDS011;5577;42.706;23.160;2023-03-17T12:37:06;4.27;;;2.70;;
11048;SDS011;5577;42.706;23.160;2023-03-17T12:40:02;3.07;;;2.40;;
11048;SDS011;5577;42.706;23.160;2023-03-17T12:46:25;2.43;;;1.90;;
11048;SDS011;5577;42.706;23.160;2023-03-17T12:50:07;2.17;;;1.90;;
11048;SDS011;5577;42.706;23.160;2023-03-17T12:52:46;1.97;;;1.87;;
11048;SDS011;5577;42.706;23.160;2023-03-17T12:55:35;2.10;;;2.00;;
11048;SDS011;5577;42.706;23.160;2023-03-17T13:01:38;2.53;;;2.20;;
11048;SDS011;5577;42.706;23.160;2023-03-17T13:04:35;2.07;;;1.87;;
11048;SDS011;5577;42.706;23.160;2023-03-17T13:07:30;2.07;;;1.87;;
11048;SDS011;5577;42.706;23.160;2023-03-17T13:10:37;2.90;;;2.10;;
11048;SDS011;5577;42.706;23.160;2023-03-17T13:13:34;2.90;;;1.90;;
11048;SDS011;5577;42.706;23.160;2023-03-17T13:19:23;4.87;;;2.60;;
11048;SDS011;5577;42.706;23.160;2023-03-17T13:25:17;3.63;;;2.83;;
11048;SDS011;5577;42.706;23.160;2023-03-17T13:31:08;3.40;;;2.50;;
11048;SDS011;5577;42.706;23.160;2023-03-17T13:34:01;3.40;;;2.10;;
11048;SDS011;5577;42.706;23.160;2023-03-17T13:40:16;2.63;;;2.43;;
11048;SDS011;5577;42.706;23.160;2023-03-17T13:45:48;2.53;;;2.17;;
11048;SDS011;5577;42.706;23.160;2023-03-17T13:48:33;2.10;;;1.90;;
11048;SDS011;5577;42.706;23.160;2023-03-17T13:54:07;6.23;;;3.77;;
11048;SDS011;5577;42.706;23.160;2023-03-17T13:57:21;5.07;;;3.33;;
11048;SDS011;5577;42.706;23.160;2023-03-17T14:00:24;4.33;;;2.60;;
11048;SDS011;5577;42.706;23.160;2023-03-17T14:03:11;3.17;;;2.50;;
11048;SDS011;5577;42.706;23.160;2023-03-17T14:06:03;2.30;;;2.10;;
11048;SDS011;5577;42.706;23.160;2023-03-17T14:08:51;3.70;;;2.90;;
11048;SDS011;5577;42.706;23.160;2023-03-17T14:11:39;3.63;;;2.50;;
11048;SDS011;5577;42.706;23.160;2023-03-17T14:17:27;2.70;;;2.30;;
11048;SDS011;5577;42.706;23.160;2023-03-17T14:22:59;2.50;;;2.23;;
11048;SDS011;5577;42.706;23.160;2023-03-17T14:25:45;3.83;;;2.80;;
11048;SDS011;5577;42.706;23.160;2023-03-17T14:28:29;5.87;;;4.27;;
11048;SDS011;5577;42.706;23.160;2023-03-17T14:31:23;8.17;;;4.57;;
11048;SDS011;5577;42.706;23.160;2023-03-17T14:34:13;4.80;;;2.40;;
11048;SDS011;5577;42.706;23.160;2023-03-17T14:37:01;3.93;;;3.00;;
11048;SDS011;5577;42.706;23.160;2023-03-17T14:39:48;4.57;;;2.70;;
11048;SDS011;5577;42.706;23.160;2023-03-17T14:42:36;2.83;;;2.23;;
11048;SDS011;5577;42.706;23.160;2023-03-17T14:45:25;3.53;;;2.70;;
11048;SDS011;5577;42.706;23.160;2023-03-17T14:48:12;4.93;;;4.17;;
11048;SDS011;5577;42.706;23.160;2023-03-17T14:51:40;3.30;;;2.60;;
11048;SDS011;5577;42.706;23.160;2023-03-17T14:54:22;4.73;;;3.10;;
11048;SDS011;5577;42.706;23.160;2023-03-17T14:57:15;5.57;;;2.60;;
11048;SDS011;5577;42.706;23.160;2023-03-17T15:00:00;4.63;;;3.03;;
11048;SDS011;5577;42.706;23.160;2023-03-17T15:03:20;3.73;;;3.40;;
11048;SDS011;5577;42.706;23.160;2023-03-17T15:09:04;3.07;;;2.43;;
11048;SDS011;5577;42.706;23.160;2023-03-17T15:12:03;6.87;;;2.70;;
11048;SDS011;5577;42.706;23.160;2023-03-17T15:14:51;5.40;;;3.10;;
11048;SDS011;5577;42.706;23.160;2023-03-17T15:17:36;3.17;;;2.40;;
11048;SDS011;5577;42.706;23.160;2023-03-17T15:20:20;5.27;;;3.80;;
11048;SDS011;5577;42.706;23.160;2023-03-17T15:23:16;6.90;;;5.27;;
11048;SDS011;5577;42.706;23.160;2023-03-17T15:26:02;4.33;;;3.57;;
11048;SDS011;5577;42.706;23.160;2023-03-17T15:28:47;4.97;;;3.63;;
11048;SDS011;5577;42.706;23.160;2023-03-17T15:31:31;4.40;;;3.47;;
11048;SDS011;5577;42.706;23.160;2023-03-17T15:34:15;3.70;;;3.30;;
11048;SDS011;5577;42.706;23.160;2023-03-17T15:36:59;6.27;;;3.43;;
11048;SDS011;5577;42.706;23.160;2023-03-17T15:39:43;4.60;;;3.47;;
11048;SDS011;5577;42.706;23.160;2023-03-17T15:42:29;4.40;;;3.80;;
11048;SDS011;5577;42.706;23.160;2023-03-17T15:45:15;6.13;;;4.27;;
11048;SDS011;5577;42.706;23.160;2023-03-17T15:48:00;5.97;;;4.13;;
11048;SDS011;5577;42.706;23.160;2023-03-17T15:50:44;6.90;;;4.90;;
11048;SDS011;5577;42.706;23.160;2023-03-17T15:53:31;7.53;;;4.37;;
11048;SDS011;5577;42.706;23.160;2023-03-17T15:56:16;9.20;;;5.17;;
11048;SDS011;5577;42.706;23.160;2023-03-17T15:59:02;7.43;;;6.07;;
11048;SDS011;5577;42.706;23.160;2023-03-17T16:01:47;12.73;;;10.40;;
11048;SDS011;5577;42.706;23.160;2023-03-17T16:04:31;6.63;;;5.90;;
11048;SDS011;5577;42.706;23.160;2023-03-17T16:07:15;5.40;;;4.80;;
11048;SDS011;5577;42.706;23.160;2023-03-17T16:09:59;6.33;;;4.40;;
11048;SDS011;5577;42.706;23.160;2023-03-17T16:12:44;5.87;;;5.07;;
11048;SDS011;5577;42.706;23.160;2023-03-17T16:15:29;9.63;;;6.90;;
11048;SDS011;5577;42.706;23.160;2023-03-17T16:18:16;8.57;;;5.73;;
11048;SDS011;5577;42.706;23.160;2023-03-17T16:21:02;6.23;;;4.07;;
11048;SDS011;5577;42.706;23.160;2023-03-17T16:23:47;7.70;;;5.40;;
11048;SDS011;5577;42.706;23.160;2023-03-17T16:26:32;8.73;;;5.80;;
11048;SDS011;5577;42.706;23.160;2023-03-17T16:29:17;21.80;;;13.20;;
11048;SDS011;5577;42.706;23.160;2023-03-17T16:32:02;5.60;;;5.00;;
11048;SDS011;5577;42.706;23.160;2023-03-17T16:34:47;10.10;;;5.60;;
11048;SDS011;5577;42.706;23.160;2023-03-17T16:37:31;8.83;;;5.77;;
11048;SDS011;5577;42.706;23.160;2023-03-17T16:40:16;11.43;;;7.23;;
11048;SDS011;5577;42.706;23.160;2023-03-17T16:43:04;9.23;;;6.37;;
11048;SDS011;5577;42.706;23.160;2023-03-17T16:45:57;5.87;;;4.83;;
11048;SDS011;5577;42.706;23.160;2023-03-17T16:48:43;6.87;;;5.60;;
11048;SDS011;5577;42.706;23.160;2023-03-17T16:51:27;6.57;;;5.60;;
11048;SDS011;5577;42.706;23.160;2023-03-17T16:54:11;9.97;;;6.60;;
11048;SDS011;5577;42.706;23.160;2023-03-17T16:56:55;10.83;;;7.80;;
11048;SDS011;5577;42.706;23.160;2023-03-17T16:59:39;8.90;;;6.40;;
11048;SDS011;5577;42.706;23.160;2023-03-17T17:02:23;14.77;;;9.17;;
11048;SDS011;5577;42.706;23.160;2023-03-17T17:05:21;10.30;;;6.77;;
11048;SDS011;5577;42.706;23.160;2023-03-17T17:08:07;12.07;;;8.90;;
11048;SDS011;5577;42.706;23.160;2023-03-17T17:10:51;19.50;;;16.20;;
11048;SDS011;5577;42.706;23.160;2023-03-17T17:13:35;9.23;;;6.53;;
11048;SDS011;5577;42.706;23.160;2023-03-17T17:16:27;22.20;;;11.07;;
11048;SDS011;5577;42.706;23.160;2023-03-17T17:19:15;54.33;;;24.80;;
11048;SDS011;5577;42.706;23.160;2023-03-17T17:22:00;36.23;;;18.10;;
11048;SDS011;5577;42.706;23.160;2023-03-17T17:24:44;16.30;;;9.73;;
11048;SDS011;5577;42.706;23.160;2023-03-17T17:27:28;7.13;;;5.03;;
11048;SDS011;5577;42.706;23.160;2023-03-17T17:30:16;8.90;;;6.30;;
11048;SDS011;5577;42.706;23.160;2023-03-17T17:33:03;6.73;;;6.03;;
11048;SDS011;5577;42.706;23.160;2023-03-17T17:35:48;9.37;;;8.37;;
11048;SDS011;5577;42.706;23.160;2023-03-17T17:38:32;8.47;;;7.40;;
11048;SDS011;5577;42.706;23.160;2023-03-17T17:41:16;10.20;;;8.90;;
11048;SDS011;5577;42.706;23.160;2023-03-17T17:44:03;13.83;;;12.40;;
11048;SDS011;5577;42.706;23.160;2023-03-17T17:46:49;12.40;;;9.00;;
11048;SDS011;5577;42.706;23.160;2023-03-17T17:49:33;13.13;;;9.33;;
11048;SDS011;5577;42.706;23.160;2023-03-17T17:52:17;17.77;;;13.27;;
11048;SDS011;5577;42.706;23.160;2023-03-17T17:55:01;15.40;;;11.97;;
11048;SDS011;5577;42.706;23.160;2023-03-17T17:57:46;11.17;;;8.53;;
11048;SDS011;5577;42.706;23.160;2023-03-17T18:00:31;11.87;;;8.00;;
11048;SDS011;5577;42.706;23.160;2023-03-17T18:03:15;8.90;;;6.90;;
11048;SDS011;5577;42.706;23.160;2023-03-17T18:06:04;9.57;;;7.10;;
11048;SDS011;5577;42.706;23.160;2023-03-17T18:08:49;11.67;;;7.63;;
11048;SDS011;5577;42.706;23.160;2023-03-17T18:11:33;13.87;;;9.03;;
11048;SDS011;5577;42.706;23.160;2023-03-17T18:14:21;20.27;;;15.73;;